Main page
Satellite images 10-day forecastsClimateMarine weather Cyclones Lightning AirportsFAQ Newsletter About
Weather : Europe Africa North America South America Asia Australia-Oceania Others
Languages Contact

Buenos Aires, Argentina

Aeroparque Jorge Newbery

latitude: 34-34S, longitude: 058-25W, elevation: 6 m


METAR: SABE 280300Z 09004KT CAVOK 18/13 Q1021
TAF: SABE 272300Z 2800/2824 VRB03KT CAVOK TX25/2818Z TN16/2809Z BECMG 2804/2806 05010KT BECMG 2816/2818 09010KT

Time: 00:55 (03:55 UTC)

Current weather observation

The report was made 55 minutes ago, at 03:00 UTC
Wind 4 kt from the East
Temperature 18°C
Humidity 73%
Pressure 1021 hPa
Visibility 10 km or more
no clouds below 1500 m and no cumulonimbus

Change units

Forecast

The report was made 4 hours and 55 minutes ago, at 23:00 UTC
Forecast valid from 28 at 00 UTC to 28 at 24 UTC
Wind 3 kt from variable directions
Visibility 10 km or more
no clouds below 1500 m and no cumulonimbus
Becoming
from 28 at 04 UTC to 28 at 06 UTC
Wind 10 kt from the Northeast
Becoming
from 28 at 16 UTC to 28 at 18 UTC
Wind 10 kt from the East
The information on this site is subject to a disclaimer
Weather : Europe Africa North America South America Asia Australia-Oceania Others
Satellite images 10-day forecastsClimateMarine weather Cyclones Lightning AirportsFAQ Languages Contact Newsletter About